Anta, Argentina
Current Conditions -  °F | °C
As of 4:00 AM on Saturday 29 Nov 2014 (Local Time) from SASJ Reporting Station
Scattered Clouds Scattered Clouds  
Wind Chill: 22°   Ceiling: Unl
Heat Index: 22°   Visibility: 6mi
Dew Point: 19°   Wind: 3mph
Humidity: 83%   Direction: 360°N
Pressure: 29.74"   Gusts: NA
Location:  24.92°S, 64.47°W
Report Text: SASJ 290700Z 36003KT 9999 SCT025 SCT10022/19 Q1007
Loading
Personal Weather Stations






























Interactive Weather Map New forecast layout! Learn more

10-Day Weather Forecast

Advertisements
Track Severe Weather on mobile